Terminal Aerodrome Forecast
Issued by NWS Green Bay, WI

Home | Current Version | Previous Version | Text Only | Print | Product List | Glossary Off
Versions: 1 2 3 4 5 6 7 8 9 10 11 12 13 14 15 16 17 18 19 20 21 22 23 24 25 26 27 28 29 30 31 32 33 34 35 36 37 38 39 40

465
FTUS43 KGRB 201126
TAFGRB
TAF
KGRB 201126Z 2012/2112 28007KT P6SM SCT070
     FM201400 28008G14KT P6SM -SHRA SCT050 BKN070
     FM201800 29009G14KT P6SM BKN050
     FM202300 30004KT P6SM SCT050
     FM210500 33003KT P6SM SKC=

USA.gov is the U.S. government's official web portal to all federal, state and local government web resources and services.